createdAt,value
2022-11-21T00:00:07.551Z,94.41
2022-11-21T00:01:07.894Z,94.73
2022-11-21T00:02:08.376Z,94.62
2022-11-21T00:03:08.562Z,94.31
2022-11-21T00:04:08.906Z,94.41
2022-11-21T00:05:09.217Z,95.04
2022-11-21T00:06:09.542Z,94.93
2022-11-21T00:07:09.961Z,95.15
2022-11-21T00:08:10.195Z,94.67
2022-11-21T00:09:10.608Z,94.31
2022-11-21T00:10:10.834Z,94.35
2022-11-21T00:11:11.150Z,94.41
2022-11-21T00:12:11.494Z,94.56
2022-11-21T00:13:11.804Z,94.14
2022-11-21T00:14:12.171Z,94.35
2022-11-21T00:15:12.472Z,94.41
2022-11-21T00:16:12.767Z,94.56
2022-11-21T00:17:13.089Z,94.45
2022-11-21T00:18:13.396Z,94.45
2022-11-21T00:19:13.724Z,94.45
2022-11-21T00:20:14.087Z,94.35
2022-11-21T00:21:14.372Z,94.56
2022-11-21T00:22:14.690Z,95.29
2022-11-21T00:23:15.021Z,96.03
2022-11-21T00:24:15.363Z,95.29
2022-11-21T00:25:15.731Z,95.19
2022-11-21T00:26:16.015Z,95.08
2022-11-21T00:27:16.362Z,95.08
2022-11-21T00:28:16.620Z,95.08
2022-11-21T00:29:16.914Z,94.45
2022-11-21T00:30:17.209Z,94.45
2022-11-21T00:31:17.533Z,94.67
2022-11-21T00:32:17.866Z,94.45
2022-11-21T00:33:18.169Z,94.77
2022-11-21T00:34:18.515Z,94.45
2022-11-21T00:35:18.806Z,94.56
2022-11-21T00:36:19.150Z,94.56
2022-11-21T00:37:19.500Z,94.35
2022-11-21T00:38:19.802Z,94.56
2022-11-21T00:39:20.126Z,94.98
2022-11-21T00:40:20.451Z,96.03
2022-11-21T00:41:20.859Z,95.72
2022-11-21T00:42:21.095Z,95.72
2022-11-21T00:43:21.416Z,95.19
2022-11-21T00:44:21.717Z,94.98
2022-11-21T00:45:24.501Z,94.77
2022-11-21T00:46:22.392Z,94.56
2022-11-21T00:47:22.685Z,94.56
2022-11-21T00:48:23.016Z,94.45
2022-11-21T00:49:23.385Z,94.45
2022-11-21T00:50:23.670Z,94.04
2022-11-21T00:51:23.991Z,94.14
2022-11-21T00:52:24.308Z,94.45
2022-11-21T00:53:24.623Z,95.82
2022-11-21T00:54:25.332Z,95.56
2022-11-21T00:55:25.270Z,94.98
2022-11-21T00:56:25.594Z,95.36
2022-11-21T00:57:25.952Z,96.19
2022-11-21T00:58:26.240Z,95.98
2022-11-21T00:59:26.584Z,95.88
2022-11-21T01:00:26.989Z,95.31
2022-11-21T01:01:27.300Z,95.15
2022-11-21T01:02:27.659Z,95.15
2022-11-21T01:03:27.898Z,94.37
2022-11-21T01:04:28.475Z,94.41
2022-11-21T01:05:28.533Z,94.83
2022-11-21T01:06:28.844Z,95.88
2022-11-21T01:07:29.257Z,95.42
2022-11-21T01:08:29.501Z,95.67
2022-11-21T01:09:29.786Z,94.41
2022-11-21T01:10:30.086Z,94.51
2022-11-21T01:11:30.401Z,95.36
2022-11-21T01:12:30.750Z,94.41
2022-11-21T01:13:31.082Z,94.20
2022-11-21T01:14:31.388Z,93.43
2022-11-21T01:15:31.672Z,94.68
2022-11-21T01:16:31.985Z,94.06
2022-11-21T01:17:32.328Z,93.95
2022-11-21T01:18:32.690Z,93.84
2022-11-21T01:19:32.923Z,93.95
2022-11-21T01:20:33.229Z,94.06
2022-11-21T01:21:33.564Z,93.84
2022-11-21T01:22:33.848Z,94.16
2022-11-21T01:23:34.215Z,93.95
2022-11-21T01:24:34.459Z,93.74
2022-11-21T01:25:34.784Z,93.88
2022-11-21T01:26:35.090Z,94.06
2022-11-21T01:27:35.429Z,93.84
2022-11-21T01:28:35.726Z,93.74
2022-11-21T01:29:36.038Z,94.20
2022-11-21T01:30:36.304Z,94.06
2022-11-21T01:31:36.602Z,94.26
2022-11-21T01:32:36.916Z,94.51
2022-11-21T01:33:37.225Z,94.16
2022-11-21T01:34:37.607Z,94.31
2022-11-21T01:35:37.824Z,94.31
2022-11-21T01:36:38.151Z,94.37
2022-11-21T01:37:38.475Z,94.41
2022-11-21T01:38:38.801Z,93.57
2022-11-21T01:39:39.158Z,93.84
2022-11-21T01:40:39.597Z,94.20
2022-11-21T01:41:39.751Z,94.47
2022-11-21T01:42:40.084Z,94.51
2022-11-21T01:43:40.377Z,93.68
2022-11-21T01:44:40.695Z,94.31
2022-11-21T01:45:41.075Z,94.51
2022-11-21T01:46:41.335Z,94.58
2022-11-21T01:47:41.643Z,95.21
2022-11-21T01:48:41.952Z,95.21
2022-11-21T01:49:42.259Z,94.85
2022-11-21T01:50:42.605Z,94.32
2022-11-21T01:51:42.934Z,94.43
2022-11-21T01:52:43.251Z,94.32
2022-11-21T01:53:43.527Z,93.70
2022-11-21T01:54:43.843Z,94.01
2022-11-21T01:55:44.163Z,94.32
2022-11-21T01:56:45.446Z,93.59
2022-11-21T01:57:44.829Z,93.59
2022-11-21T01:58:45.130Z,94.38
2022-11-21T01:59:45.465Z,93.80
2022-11-21T02:00:45.846Z,93.80
2022-11-21T02:01:46.194Z,93.76
2022-11-21T02:02:46.435Z,93.97
2022-11-21T02:03:46.746Z,93.87
2022-11-21T02:04:47.050Z,94.28
2022-11-21T02:05:47.413Z,93.65
2022-11-21T02:06:47.713Z,93.34
2022-11-21T02:07:47.966Z,93.55
2022-11-21T02:08:48.288Z,93.13
2022-11-21T02:09:48.572Z,93.24
2022-11-21T02:10:48.893Z,93.24
2022-11-21T02:11:49.226Z,93.13
2022-11-21T02:12:49.529Z,92.92
2022-11-21T02:13:49.824Z,92.92
2022-11-21T02:14:50.272Z,93.13
2022-11-21T02:15:50.459Z,92.92
2022-11-21T02:16:50.790Z,92.71
2022-11-21T02:17:51.093Z,92.71
2022-11-21T02:18:51.413Z,92.82
2022-11-21T02:19:51.853Z,92.71
2022-11-21T02:20:52.031Z,93.24
2022-11-21T02:21:52.332Z,93.34
2022-11-21T02:22:52.645Z,93.55
2022-11-21T02:23:56.408Z,94.38
2022-11-21T02:24:53.423Z,93.55
2022-11-21T02:25:53.558Z,93.34
2022-11-21T02:26:53.955Z,93.65
2022-11-21T02:27:54.295Z,94.18
2022-11-21T02:28:54.458Z,94.38
2022-11-21T02:29:54.812Z,94.38
2022-11-21T02:30:55.076Z,94.28
2022-11-21T02:31:55.332Z,93.76
2022-11-21T02:32:55.615Z,93.27
2022-11-21T02:33:55.894Z,93.02
2022-11-21T02:34:56.368Z,92.82
2022-11-21T02:35:56.488Z,93.17
2022-11-21T02:36:56.739Z,93.59
2022-11-21T02:37:57.029Z,93.38
2022-11-21T02:38:57.319Z,93.34
2022-11-21T02:39:57.605Z,93.27
2022-11-21T02:40:58.037Z,93.49
2022-11-21T02:41:58.162Z,92.92
2022-11-21T02:42:58.476Z,92.61
2022-11-21T02:43:58.730Z,93.27
2022-11-21T02:44:59.018Z,92.71
2022-11-21T02:45:59.402Z,92.92
2022-11-21T02:46:59.582Z,93.07
2022-11-21T02:48:03.934Z,92.86
2022-11-21T02:49:00.169Z,92.65
2022-11-21T02:50:00.450Z,92.86
2022-11-21T02:51:00.755Z,93.07
2022-11-21T02:52:01.079Z,92.86
2022-11-21T02:53:01.303Z,92.71
2022-11-21T02:54:01.581Z,92.96
2022-11-21T02:55:01.880Z,92.86
2022-11-21T02:56:02.163Z,92.76
2022-11-21T02:57:02.495Z,92.86
2022-11-21T02:58:05.251Z,93.07
2022-11-21T02:59:03.048Z,92.86
2022-11-21T03:00:03.371Z,92.86
2022-11-21T03:01:03.672Z,92.76
2022-11-21T03:02:03.910Z,92.96
2022-11-21T03:03:04.203Z,92.76
2022-11-21T03:04:04.490Z,92.86
2022-11-21T03:05:04.867Z,92.33
2022-11-21T03:06:05.089Z,92.44
2022-11-21T03:07:05.418Z,93.07
2022-11-21T03:08:05.662Z,92.44
2022-11-21T03:09:05.958Z,92.65
2022-11-21T03:10:06.295Z,92.33
2022-11-21T03:11:06.561Z,92.65
2022-11-21T03:12:06.914Z,92.54
2022-11-21T03:13:07.203Z,93.07
2022-11-21T03:14:07.454Z,93.17
2022-11-21T03:15:07.752Z,92.44
2022-11-21T03:16:08.045Z,92.38
2022-11-21T03:17:08.377Z,92.96
2022-11-21T03:18:08.673Z,92.96
2022-11-21T03:19:09.006Z,92.96
2022-11-21T03:20:09.329Z,92.69
2022-11-21T03:21:09.658Z,92.69
2022-11-21T03:22:10.031Z,92.44
2022-11-21T03:23:10.312Z,93.32
2022-11-21T03:24:10.640Z,92.38
2022-11-21T03:25:10.963Z,92.58
2022-11-21T03:26:11.303Z,92.44
2022-11-21T03:27:11.774Z,92.54
2022-11-21T03:28:11.976Z,92.23
2022-11-21T03:29:12.282Z,92.48
2022-11-21T03:30:12.621Z,92.69
2022-11-21T03:31:12.937Z,92.48
2022-11-21T03:32:13.322Z,92.69
2022-11-21T03:33:13.582Z,92.38
2022-11-21T03:34:13.904Z,92.58
2022-11-21T03:35:14.222Z,92.90
2022-11-21T03:36:14.536Z,92.44
2022-11-21T03:37:14.871Z,92.27
2022-11-21T03:38:15.171Z,92.02
2022-11-21T03:39:15.512Z,92.27
2022-11-21T03:40:15.791Z,92.48
2022-11-21T03:41:16.122Z,92.90
2022-11-21T03:42:16.427Z,92.69
2022-11-21T03:43:16.773Z,92.44
2022-11-21T03:44:17.106Z,92.38
2022-11-21T03:45:17.389Z,92.38
2022-11-21T03:46:17.711Z,92.06
2022-11-21T03:47:18.036Z,91.85
2022-11-21T03:48:18.328Z,91.85
2022-11-21T03:49:18.652Z,92.16
2022-11-21T03:50:18.932Z,91.85
2022-11-21T03:51:19.237Z,92.06
2022-11-21T03:52:19.609Z,92.16
2022-11-21T03:53:19.875Z,91.96
2022-11-21T03:54:20.170Z,91.64
2022-11-21T03:55:20.467Z,91.12
2022-11-21T03:56:20.766Z,91.43
2022-11-21T03:57:21.097Z,91.64
2022-11-21T03:58:21.422Z,91.64
2022-11-21T03:59:21.652Z,91.75
2022-11-21T04:00:21.960Z,91.53
2022-11-21T04:01:22.310Z,91.64
2022-11-21T04:02:22.549Z,91.64
2022-11-21T04:03:22.814Z,91.64
2022-11-21T04:04:23.187Z,91.85
2022-11-21T04:05:23.382Z,91.64
2022-11-21T04:06:23.670Z,92.16
2022-11-21T04:07:23.989Z,91.53
2022-11-21T04:08:24.250Z,91.64
2022-11-21T04:09:24.660Z,91.75
2022-11-21T04:10:24.833Z,91.47
2022-11-21T04:11:25.143Z,91.37
2022-11-21T04:12:25.424Z,91.53
2022-11-21T04:13:25.749Z,91.58
2022-11-21T04:14:26.435Z,91.75
2022-11-21T04:15:26.316Z,91.53
2022-11-21T04:16:26.611Z,91.79
2022-11-21T04:17:26.901Z,91.22
2022-11-21T04:18:27.201Z,91.58
2022-11-21T04:19:27.602Z,91.64
2022-11-21T04:20:27.809Z,91.43
2022-11-21T04:21:28.108Z,91.43
2022-11-21T04:22:28.411Z,91.58
2022-11-21T04:23:28.727Z,91.53
2022-11-21T04:24:29.434Z,91.64
2022-11-21T04:25:29.334Z,91.68
2022-11-21T04:26:29.649Z,91.47
2022-11-21T04:27:29.954Z,91.68
2022-11-21T04:28:30.291Z,91.68
2022-11-21T04:29:31.312Z,91.27
2022-11-21T04:30:30.898Z,92.00
2022-11-21T04:31:31.212Z,92.00
2022-11-21T04:32:31.528Z,91.68
2022-11-21T04:33:31.837Z,91.68
2022-11-21T04:34:32.179Z,91.53
2022-11-21T04:35:32.442Z,91.68
2022-11-21T04:36:32.778Z,91.27
2022-11-21T04:37:33.053Z,91.47
2022-11-21T04:38:33.348Z,91.68
2022-11-21T04:39:33.701Z,91.47
2022-11-21T04:40:33.969Z,91.16
2022-11-21T04:41:34.403Z,91.47
2022-11-21T04:42:34.606Z,91.68
2022-11-21T04:43:34.953Z,91.72
2022-11-21T04:44:35.257Z,91.30
2022-11-21T04:45:35.580Z,91.37
2022-11-21T04:46:35.908Z,91.72
2022-11-21T04:47:36.311Z,91.47
2022-11-21T04:48:36.484Z,91.05
2022-11-21T04:49:36.793Z,91.16
2022-11-21T04:50:37.104Z,91.58
2022-11-21T04:51:37.407Z,91.52
2022-11-21T04:52:37.859Z,91.05
2022-11-21T04:53:42.689Z,91.16
2022-11-21T04:54:38.327Z,91.37
2022-11-21T04:55:38.629Z,91.20
2022-11-21T04:56:38.924Z,91.20
2022-11-21T04:57:39.306Z,91.20
2022-11-21T04:58:39.557Z,91.16
2022-11-21T04:59:39.836Z,91.20
2022-11-21T05:00:40.135Z,90.89
2022-11-21T05:01:40.503Z,90.36
2022-11-21T05:02:40.791Z,90.99
2022-11-21T05:03:41.083Z,90.99
2022-11-21T05:04:41.400Z,91.09
2022-11-21T05:05:41.699Z,91.20
2022-11-21T05:06:42.072Z,91.72
2022-11-21T05:07:42.340Z,91.52
2022-11-21T05:08:42.626Z,91.62
2022-11-21T05:09:42.922Z,91.72
2022-11-21T05:10:43.223Z,91.72
2022-11-21T05:11:43.592Z,91.94
2022-11-21T05:12:43.842Z,92.04
2022-11-21T05:13:44.187Z,91.72
2022-11-21T05:14:44.477Z,91.72
2022-11-21T05:15:44.798Z,91.52
2022-11-21T05:16:45.167Z,91.24
2022-11-21T05:17:45.413Z,91.52
2022-11-21T05:18:45.717Z,91.35
2022-11-21T05:19:46.022Z,91.20
2022-11-21T05:20:46.325Z,90.99
2022-11-21T05:21:46.664Z,90.72
2022-11-21T05:22:46.943Z,91.03
2022-11-21T05:23:47.303Z,90.92
2022-11-21T05:24:47.583Z,90.72
2022-11-21T05:25:47.890Z,91.14
2022-11-21T05:26:48.315Z,91.03
2022-11-21T05:27:48.518Z,91.24
2022-11-21T05:28:48.870Z,91.24
2022-11-21T05:29:49.131Z,91.56
2022-11-21T05:30:49.460Z,91.87
2022-11-21T05:31:49.783Z,91.81
2022-11-21T05:32:50.058Z,91.97
2022-11-21T05:33:50.354Z,92.12
2022-11-21T05:34:50.666Z,92.19
2022-11-21T05:35:51.061Z,91.71
2022-11-21T05:36:51.284Z,91.71
2022-11-21T05:37:51.582Z,91.91
2022-11-21T05:38:51.872Z,92.12
2022-11-21T05:39:52.192Z,92.12
2022-11-21T05:40:52.615Z,92.19
2022-11-21T05:41:52.814Z,92.12
2022-11-21T05:42:53.089Z,91.39
2022-11-21T05:43:53.494Z,92.23
2022-11-21T05:44:53.688Z,92.12
2022-11-21T05:45:54.003Z,92.02
2022-11-21T05:46:54.285Z,91.71
2022-11-21T05:47:54.577Z,92.23
2022-11-21T05:48:54.941Z,92.12
2022-11-21T05:49:55.193Z,92.12
2022-11-21T05:50:55.477Z,92.12
2022-11-21T05:51:55.796Z,91.28
2022-11-21T05:52:56.112Z,91.74
2022-11-21T05:53:56.458Z,92.12
2022-11-21T05:54:56.716Z,92.16
2022-11-21T05:55:57.082Z,92.33
2022-11-21T05:56:57.341Z,92.33
2022-11-21T05:57:57.650Z,92.65
2022-11-21T05:58:57.977Z,92.86
2022-11-21T05:59:58.244Z,93.01
2022-11-21T06:01:00.123Z,92.86
2022-11-21T06:01:58.835Z,92.58
2022-11-21T06:02:59.186Z,92.96
2022-11-21T06:03:59.437Z,92.44
2022-11-21T06:04:59.746Z,92.54
2022-11-21T06:06:00.100Z,92.86
2022-11-21T06:07:00.534Z,92.80
2022-11-21T06:08:00.681Z,92.80
2022-11-21T06:09:01.006Z,92.80
2022-11-21T06:10:01.318Z,92.76
2022-11-21T06:11:01.626Z,93.11
2022-11-21T06:12:02.072Z,92.86
2022-11-21T06:13:02.252Z,93.07
2022-11-21T06:14:02.585Z,92.44
2022-11-21T06:15:03.883Z,92.65
2022-11-21T06:16:03.172Z,92.69
2022-11-21T06:17:03.499Z,92.65
2022-11-21T06:18:03.787Z,92.76
2022-11-21T06:19:04.142Z,92.76
2022-11-21T06:20:04.422Z,93.01
2022-11-21T06:21:05.876Z,92.96
2022-11-21T06:22:05.077Z,92.65
2022-11-21T06:23:05.378Z,92.90
2022-11-21T06:24:07.850Z,93.28
2022-11-21T06:25:06.206Z,92.86
2022-11-21T06:26:06.324Z,92.76
2022-11-21T06:27:06.626Z,92.76
2022-11-21T06:28:06.919Z,92.96
2022-11-21T06:29:07.277Z,93.07
2022-11-21T06:30:07.504Z,92.86
2022-11-21T06:31:07.805Z,92.65
2022-11-21T06:32:08.097Z,92.96
2022-11-21T06:33:08.387Z,92.76
2022-11-21T06:34:08.727Z,93.07
2022-11-21T06:35:08.995Z,92.86
2022-11-21T06:36:09.275Z,92.54
2022-11-21T06:37:09.581Z,92.65
2022-11-21T06:38:09.866Z,92.65
2022-11-21T06:39:10.241Z,92.76
2022-11-21T06:40:10.463Z,92.86
2022-11-21T06:41:10.758Z,92.86
2022-11-21T06:42:11.062Z,92.82
2022-11-21T06:43:11.362Z,92.61
2022-11-21T06:44:11.700Z,93.44
2022-11-21T06:45:11.967Z,93.44
2022-11-21T06:46:12.232Z,92.50
2022-11-21T06:47:12.544Z,92.71
2022-11-21T06:48:12.805Z,93.34
2022-11-21T06:49:13.155Z,93.02
2022-11-21T06:50:13.417Z,93.24
2022-11-21T06:51:13.712Z,93.13
2022-11-21T06:52:14.021Z,93.13
2022-11-21T06:53:14.328Z,93.19
2022-11-21T06:54:28.470Z,93.19
2022-11-21T06:55:14.943Z,93.19
2022-11-21T06:56:15.290Z,93.30
2022-11-21T06:57:15.597Z,92.67
2022-11-21T06:58:15.885Z,92.67
2022-11-21T06:59:16.274Z,92.67
2022-11-21T07:00:16.521Z,92.67
2022-11-21T07:01:16.842Z,92.63
2022-11-21T07:02:17.085Z,92.67
2022-11-21T07:03:17.395Z,92.77
2022-11-21T07:04:17.701Z,92.57
2022-11-21T07:05:18.055Z,92.52
2022-11-21T07:06:18.348Z,93.19
2022-11-21T07:07:18.747Z,93.19
2022-11-21T07:08:18.965Z,92.52
2022-11-21T07:09:33.261Z,93.15
2022-11-21T07:10:19.569Z,93.05
2022-11-21T07:11:26.993Z,92.94
2022-11-21T07:12:20.189Z,92.83
2022-11-21T07:13:20.441Z,93.05
2022-11-21T07:14:20.762Z,92.83
2022-11-21T07:15:21.024Z,92.80
2022-11-21T07:16:21.386Z,92.90
2022-11-21T07:17:21.613Z,93.11
2022-11-21T07:18:21.896Z,93.01
2022-11-21T07:19:22.197Z,92.90
2022-11-21T07:20:22.518Z,92.69
2022-11-21T07:21:22.834Z,92.80
2022-11-21T07:22:23.093Z,92.90
2022-11-21T07:23:23.424Z,92.86
2022-11-21T07:24:23.699Z,92.90
2022-11-21T07:25:23.990Z,92.90
2022-11-21T07:26:24.315Z,93.11
2022-11-21T07:27:24.616Z,92.90
2022-11-21T07:28:24.884Z,92.80
2022-11-21T07:29:25.551Z,92.80
2022-11-21T07:30:25.479Z,93.07
2022-11-21T07:31:25.790Z,93.27
2022-11-21T07:32:26.048Z,93.27
2022-11-21T07:33:26.337Z,93.70
2022-11-21T07:34:26.658Z,93.38
2022-11-21T07:35:26.924Z,93.44
2022-11-21T07:36:27.217Z,93.91
2022-11-21T07:37:27.517Z,93.91
2022-11-21T07:38:27.814Z,93.55
2022-11-21T07:39:28.687Z,93.97
2022-11-21T07:40:28.532Z,94.38
2022-11-21T07:41:28.714Z,94.38
2022-11-21T07:42:29.010Z,93.82
2022-11-21T07:43:29.312Z,93.30
2022-11-21T07:44:29.765Z,93.30
2022-11-21T07:45:29.896Z,93.61
2022-11-21T07:46:30.191Z,93.19
2022-11-21T07:47:30.473Z,93.30
2022-11-21T07:48:30.770Z,93.19
2022-11-21T07:49:31.483Z,93.19
2022-11-21T07:50:31.323Z,92.98
2022-11-21T07:51:31.617Z,93.19
2022-11-21T07:52:31.886Z,93.40
2022-11-21T07:53:32.180Z,93.30
2022-11-21T07:54:32.501Z,93.36
2022-11-21T07:55:37.704Z,93.26
2022-11-21T07:56:33.107Z,93.36
2022-11-21T07:57:33.308Z,93.88
2022-11-21T07:58:33.596Z,93.46
2022-11-21T07:59:33.937Z,93.15
2022-11-21T08:00:34.199Z,93.67
2022-11-21T08:01:34.504Z,94.15
2022-11-21T08:02:34.714Z,93.88
2022-11-21T08:03:35.002Z,93.95
2022-11-21T08:04:35.263Z,93.95
2022-11-21T08:05:35.605Z,94.05
2022-11-21T08:06:35.818Z,93.52
2022-11-21T08:07:36.197Z,93.32
2022-11-21T08:08:36.419Z,93.63
2022-11-21T08:09:39.775Z,93.11
2022-11-21T08:10:36.995Z,93.07
2022-11-21T08:11:37.227Z,93.07
2022-11-21T08:12:37.505Z,93.21
2022-11-21T08:13:37.769Z,93.27
2022-11-21T08:14:38.051Z,92.82
2022-11-21T08:15:38.317Z,93.27
2022-11-21T08:16:38.547Z,92.92
2022-11-21T08:17:38.801Z,93.02
2022-11-21T08:18:39.070Z,93.13
2022-11-21T08:19:39.346Z,93.54
2022-11-21T08:20:39.702Z,93.33
2022-11-21T08:21:39.894Z,93.23
2022-11-21T08:22:40.172Z,93.02
2022-11-21T08:23:40.457Z,92.92
2022-11-21T08:24:40.743Z,92.60
2022-11-21T08:25:41.056Z,93.23
2022-11-21T08:26:41.311Z,92.56
2022-11-21T08:27:41.608Z,92.46
2022-11-21T08:28:41.959Z,92.56
2022-11-21T08:29:42.265Z,92.66
2022-11-21T08:30:42.546Z,92.56
2022-11-21T08:31:42.859Z,92.77
2022-11-21T08:32:43.312Z,92.77
2022-11-21T08:33:43.505Z,92.56
2022-11-21T08:34:43.786Z,92.56
2022-11-21T08:35:44.092Z,92.52
2022-11-21T08:36:44.440Z,92.66
2022-11-21T08:37:44.750Z,92.63
2022-11-21T08:38:45.034Z,92.52
2022-11-21T08:39:45.356Z,92.63
2022-11-21T08:40:45.705Z,92.63
2022-11-21T08:41:45.994Z,92.73
2022-11-21T08:42:46.307Z,92.47
2022-11-21T08:43:46.626Z,92.21
2022-11-21T08:44:46.963Z,93.10
2022-11-21T08:45:47.326Z,92.47
2022-11-21T08:46:47.570Z,92.69
2022-11-21T08:47:47.883Z,92.47
2022-11-21T08:48:48.192Z,92.58
2022-11-21T08:49:48.501Z,92.47
2022-11-21T08:50:48.934Z,92.58
2022-11-21T08:51:49.103Z,92.58
2022-11-21T08:52:49.407Z,92.58
2022-11-21T08:53:49.693Z,92.58
2022-11-21T08:54:50.001Z,92.37
2022-11-21T08:55:50.334Z,92.75
2022-11-21T08:56:50.615Z,92.75
2022-11-21T08:57:50.991Z,92.54
2022-11-21T08:58:51.251Z,92.85
2022-11-21T08:59:51.592Z,92.44
2022-11-21T09:00:51.932Z,92.44
2022-11-21T09:01:52.233Z,92.33
2022-11-21T09:02:52.553Z,92.33
2022-11-21T09:03:52.798Z,92.33
2022-11-21T09:04:53.112Z,92.40
2022-11-21T09:05:53.466Z,93.02
2022-11-21T09:06:53.752Z,92.29
2022-11-21T09:07:54.029Z,92.50
2022-11-21T09:08:54.328Z,92.71
2022-11-21T09:09:54.622Z,92.71
2022-11-21T09:10:54.965Z,92.71
2022-11-21T09:11:55.242Z,92.29
2022-11-21T09:12:55.501Z,92.25
2022-11-21T09:13:55.788Z,92.46
2022-11-21T09:14:56.102Z,92.35
2022-11-21T09:15:56.379Z,92.35
2022-11-21T09:17:00.788Z,92.25
2022-11-21T09:17:56.976Z,92.46
2022-11-21T09:18:57.301Z,92.35
2022-11-21T09:19:57.658Z,92.25
2022-11-21T09:20:59.064Z,92.46
2022-11-21T09:21:58.242Z,92.35
2022-11-21T09:22:58.554Z,91.83
2022-11-21T09:23:58.829Z,91.93
2022-11-21T09:24:59.138Z,92.25
2022-11-21T09:25:59.438Z,92.03
2022-11-21T09:26:59.722Z,92.14
2022-11-21T09:28:00.052Z,92.66
2022-11-21T09:29:00.562Z,91.89
2022-11-21T09:30:00.629Z,91.83
2022-11-21T09:31:00.906Z,92.41
2022-11-21T09:32:01.200Z,92.25
2022-11-21T09:33:01.515Z,92.56
2022-11-21T09:34:01.844Z,91.83
2022-11-21T09:35:02.096Z,92.77
2022-11-21T09:36:02.389Z,92.56
2022-11-21T09:37:02.696Z,92.35
2022-11-21T09:38:03.003Z,92.35
2022-11-21T09:39:03.429Z,92.35
2022-11-21T09:40:03.603Z,92.35
2022-11-21T09:41:03.898Z,92.25
2022-11-21T09:42:04.207Z,92.35
2022-11-21T09:43:04.521Z,92.35
2022-11-21T09:44:04.864Z,92.46
2022-11-21T09:45:05.200Z,92.56
2022-11-21T09:46:05.493Z,92.46
2022-11-21T09:47:05.729Z,92.35
2022-11-21T09:48:06.018Z,92.25
2022-11-21T09:49:06.342Z,92.35
2022-11-21T09:50:06.672Z,92.35
2022-11-21T09:51:06.940Z,92.25
2022-11-21T09:52:07.195Z,92.35
2022-11-21T09:53:07.492Z,92.35
2022-11-21T09:54:07.796Z,92.03
2022-11-21T09:55:08.105Z,92.14
2022-11-21T09:56:08.494Z,92.14
2022-11-21T09:57:08.754Z,91.78
2022-11-21T09:58:09.042Z,91.93
2022-11-21T09:59:09.359Z,92.14
2022-11-21T10:00:09.692Z,92.03
2022-11-21T10:01:10.100Z,91.72
2022-11-21T10:02:10.356Z,92.03
2022-11-21T10:03:10.633Z,91.93
2022-11-21T10:04:10.955Z,92.14
2022-11-21T10:05:11.259Z,92.14
2022-11-21T10:06:11.537Z,92.14
2022-11-21T10:07:12.113Z,92.25
2022-11-21T10:08:12.099Z,91.83
2022-11-21T10:09:12.365Z,91.72
2022-11-21T10:10:12.642Z,91.72
2022-11-21T10:11:19.444Z,91.72
2022-11-21T10:12:13.228Z,91.83
2022-11-21T10:13:13.471Z,92.35
2022-11-21T10:14:13.761Z,92.25
2022-11-21T10:15:14.083Z,92.25
2022-11-21T10:16:14.346Z,92.14
2022-11-21T10:17:14.661Z,92.66
2022-11-21T10:18:14.963Z,92.56
2022-11-21T10:19:15.211Z,92.35
2022-11-21T10:20:15.478Z,92.25
2022-11-21T10:21:15.873Z,92.25
2022-11-21T10:22:16.055Z,92.25
2022-11-21T10:23:16.425Z,92.25
2022-11-21T10:24:16.596Z,92.56
2022-11-21T10:25:16.880Z,92.87
2022-11-21T10:26:17.151Z,93.71
2022-11-21T10:27:17.426Z,93.35
2022-11-21T10:28:17.725Z,93.56
2022-11-21T10:29:17.967Z,93.56
2022-11-21T10:30:18.374Z,93.46
2022-11-21T10:31:18.581Z,93.24
2022-11-21T10:32:18.782Z,93.14
2022-11-21T10:33:19.085Z,93.35
2022-11-21T10:34:19.352Z,93.98
2022-11-21T10:35:19.587Z,93.98
2022-11-21T10:36:19.855Z,93.87
2022-11-21T10:37:20.117Z,93.35
2022-11-21T10:38:20.413Z,92.83
2022-11-21T10:39:20.695Z,93.04
2022-11-21T10:40:20.968Z,93.14
2022-11-21T10:41:21.254Z,93.04
2022-11-21T10:42:24.526Z,92.21
2022-11-21T10:43:21.856Z,92.31
2022-11-21T10:44:22.177Z,92.31
2022-11-21T10:45:22.452Z,92.31
2022-11-21T10:46:22.713Z,92.21
2022-11-21T10:47:23.013Z,92.72
2022-11-21T10:48:23.303Z,93.04
2022-11-21T10:49:23.615Z,92.93
2022-11-21T10:50:23.882Z,93.04
2022-11-21T10:51:24.167Z,92.83
2022-11-21T10:52:24.440Z,92.58
2022-11-21T10:53:24.722Z,92.31
2022-11-21T10:54:25.151Z,92.37
2022-11-21T10:55:25.327Z,92.31
2022-11-21T10:56:25.593Z,92.16
2022-11-21T10:57:25.890Z,92.16
2022-11-21T10:58:26.178Z,91.75
2022-11-21T10:59:30.517Z,91.96
2022-11-21T11:00:26.818Z,92.21
2022-11-21T11:01:27.201Z,91.96
2022-11-21T11:02:27.335Z,91.64
2022-11-21T11:03:27.635Z,91.85
2022-11-21T11:04:29.667Z,92.16
2022-11-21T11:05:28.226Z,91.96
2022-11-21T11:06:28.523Z,91.85
2022-11-21T11:07:28.909Z,91.64
2022-11-21T11:08:29.111Z,91.53
2022-11-21T11:09:29.439Z,91.64
2022-11-21T11:10:29.691Z,91.22
2022-11-21T11:11:29.984Z,91.22
2022-11-21T11:12:30.296Z,91.12
2022-11-21T11:13:47.244Z,91.33
2022-11-21T11:14:30.955Z,90.60
2022-11-21T11:15:31.198Z,90.91
2022-11-21T11:16:31.445Z,90.70
2022-11-21T11:17:31.738Z,90.97
2022-11-21T11:18:32.073Z,91.08
2022-11-21T11:19:38.686Z,90.77
2022-11-21T11:20:32.623Z,90.87
2022-11-21T11:21:32.845Z,91.08
2022-11-21T11:22:33.137Z,91.08
